Terminal Aerodrome Forecast
Issued by NWS

Home | Current Version | Previous Version | Text Only | Print | Product List | Glossary On
Versions: 1 2 3 4 5 6 7 8 9 10 11 12 13 14 15 16 17 18
000
FTUS41 KPBZ 232320
TAFFKL
TAF
KFKL 232320Z 2400/2424 VRB03KT P6SM BKN050
      TEMPO 2400/2404 -RA BKN015
     FM240900 18005KT P6SM BKN060
     FM241600 19012G25KT P6SM SCT060
      AMD LTD TO CLD VIS AND WIND=

USA.gov is the U.S. government's official web portal to all federal, state and local government web resources and services.